Richwood, Ohio
Current Conditions -  °F | °C
As of 4:16 AM on Wednesday 22 Oct 2014 (Local Time) from KDLZ Reporting Station
Overcast Overcast  
Wind Chill: 35°   Ceiling: 800
Heat Index: 41°   Visibility: 7mi
Dew Point: 39°   Wind: 10mph
Humidity: 93%   Direction: 320°NW
Pressure: 30.17"   Gusts: NA
Location:  40.43°N, 83.3°W
Report Text: KDLZ 220816Z AUTO 32009KT 7SM BKN008 OVC013 05/04 A3017 RMK AO2
Loading
Personal Weather Stations






























Interactive Weather Map
Tropical Storm Tracking
New forecast layout! Learn more

10-Day Weather Forecast

Advertisements
Track Severe Weather on mobile